Time;durP1;ratioP1;P1;durP2;ratioP2;P2;SDS_P1;SDS_P2;PMS_P1;PMS_P2;Temp;Humidity;BMP_temperature;BMP_pressure;BME280_temperature;BME280_humidity;BME280_pressure;Samples;Min_cycle;Max_cycle;Signal;HPM_P1;HPM_P2
2023/03/15 00:00:06;;;;;;;7.50;5.67;;;;;;;8.26;55.30;98656.91;5011951;28;1133438;-63
2023/03/15 00:02:33;;;;;;;5.67;5.17;;;;;;;8.33;55.71;98658.53;5051103;28;20664;-63
2023/03/15 00:05:01;;;;;;;7.00;5.50;;;;;;;8.38;56.20;98655.28;5051571;28;20250;-64
2023/03/15 00:07:28;;;;;;;9.83;5.43;;;;;;;8.41;55.53;98655.69;5051222;28;20742;-63
2023/03/15 00:09:55;;;;;;;6.23;5.60;;;;;;;8.44;56.09;98654.47;5051489;28;20203;-63
2023/03/15 00:12:22;;;;;;;5.77;5.30;;;;;;;8.46;55.96;98647.94;5051683;28;20254;-64
2023/03/15 00:14:49;;;;;;;5.53;5.10;;;;;;;8.48;55.87;98651.22;5051401;28;20199;-63
2023/03/15 00:17:16;;;;;;;6.40;5.33;;;;;;;8.47;55.67;98654.91;5051502;28;20191;-63
2023/03/15 00:19:43;;;;;;;6.63;5.40;;;;;;;8.39;56.34;98651.63;5051272;28;20196;-63
2023/03/15 00:22:11;;;;;;;5.50;5.00;;;;;;;8.35;56.16;98645.09;5051695;28;20620;-63
2023/03/15 00:24:38;;;;;;;7.93;6.70;;;;;;;8.16;56.28;98645.84;5051653;28;20193;-64
2023/03/15 00:27:05;;;;;;;8.10;7.17;;;;;;;8.00;56.99;98635.69;5051284;28;20201;-63
2023/03/15 00:29:32;;;;;;;10.83;9.63;;;;;;;7.93;56.41;98634.84;5051546;28;20200;-64
2023/03/15 00:31:59;;;;;;;18.60;10.27;;;;;;;7.70;56.39;98623.78;5051542;28;20247;-64
2023/03/15 00:34:26;;;;;;;11.83;10.67;;;;;;;7.47;57.21;98618.84;5051090;28;20291;-63
2023/03/15 00:36:53;;;;;;;14.43;11.43;;;;;;;7.35;57.39;98636.25;5050997;28;20584;-63
2023/03/15 00:39:24;;;;;;;15.07;11.40;;;;;;;7.24;57.63;98639.47;5050853;28;20207;-63
2023/03/15 00:41:55;;;;;;;14.77;12.07;;;;;;;7.09;58.12;98630.84;5051364;28;20185;-64
2023/03/15 00:44:22;;;;;;;15.13;12.73;;;;;;;7.02;59.02;98629.19;5051226;28;20196;-64
2023/03/15 00:46:49;;;;;;;14.17;11.90;;;;;;;6.98;59.50;98622.69;5050965;28;20200;-64
2023/03/15 00:49:16;;;;;;;17.97;11.57;;;;;;;6.91;59.42;98621.81;5050357;28;20251;-63
2023/03/15 00:51:43;;;;;;;18.17;12.77;;;;;;;6.85;60.21;98612.00;5051428;28;20196;-64
2023/03/15 00:54:12;;;;;;;14.57;11.43;;;;;;;6.80;60.33;98617.88;5051032;28;20242;-63
2023/03/15 00:56:40;;;;;;;12.77;11.20;;;;;;;6.70;61.13;98627.16;5051058;28;20227;-64
2023/03/15 00:59:07;;;;;;;15.73;12.27;;;;;;;6.70;61.14;98624.53;5052430;28;20259;-64
2023/03/15 01:01:34;;;;;;;18.00;13.20;;;;;;;6.53;61.26;98612.63;5054202;28;20248;-64
2023/03/15 01:04:01;;;;;;;18.07;11.37;;;;;;;6.58;61.63;98620.78;5054606;28;20200;-65
2023/03/15 01:06:29;;;;;;;16.93;12.13;;;;;;;6.58;62.17;98610.22;5054302;28;20231;-64
2023/03/15 01:08:56;;;;;;;20.17;12.00;;;;;;;6.62;61.91;98607.00;5053720;28;20219;-65
2023/03/15 01:11:25;;;;;;;18.03;12.30;;;;;;;6.63;62.06;98602.53;5054200;28;20627;-64
2023/03/15 01:13:55;;;;;;;17.33;12.07;;;;;;;6.64;62.39;98593.63;5054064;28;20192;-64
2023/03/15 01:16:22;;;;;;;15.27;11.20;;;;;;;6.60;62.42;98602.91;5054441;28;20202;-63
2023/03/15 01:18:50;;;;;;;17.60;11.27;;;;;;;6.49;63.37;98604.25;5053727;28;20284;-65
2023/03/15 01:21:17;;;;;;;20.50;10.30;;;;;;;6.43;63.68;98596.31;5053671;28;20250;-64
2023/03/15 01:23:44;;;;;;;15.30;9.90;;;;;;;6.42;63.57;98599.97;5053728;28;20729;-64
2023/03/15 01:26:13;;;;;;;14.53;10.97;;;;;;;6.41;63.80;98591.22;5054158;28;20194;-64
2023/03/15 01:28:40;;;;;;;12.60;10.93;;;;;;;6.54;63.34;98603.69;5054015;28;20256;-64
2023/03/15 01:31:14;;;;;;;15.03;10.97;;;;;;;6.63;62.80;98598.09;5053994;28;20199;-63
2023/03/15 01:33:41;;;;;;;14.20;11.20;;;;;;;6.69;62.96;98591.22;5053756;28;20216;-64
2023/03/15 01:36:08;;;;;;;16.07;11.47;;;;;;;6.69;63.04;98585.97;5053980;28;20259;-66
2023/03/15 01:38:35;;;;;;;16.57;11.37;;;;;;;6.73;62.35;98582.72;5053813;28;20201;-64
2023/03/15 01:41:02;;;;;;;15.97;10.23;;;;;;;6.73;63.06;98579.28;5053986;28;20200;-64
2023/03/15 01:43:31;;;;;;;14.13;11.37;;;;;;;6.77;63.26;98585.81;5053745;28;20190;-66
2023/03/15 01:46:17;;;;;;;17.93;11.83;;;;;;;6.65;63.93;98580.22;5053864;28;20197;-66
2023/03/15 01:48:48;;;;;;;20.70;13.80;;;;;;;6.64;64.69;98580.41;5053933;28;20225;-66
2023/03/15 01:51:21;;;;;;;20.70;14.83;;;;;;;6.61;64.73;98580.81;5053757;28;20189;-66
2023/03/15 01:53:53;;;;;;;20.67;14.77;;;;;;;6.62;64.82;98587.72;5054003;28;20185;-65
2023/03/15 01:56:22;;;;;;;18.67;14.17;;;;;;;6.52;65.60;98584.59;5053850;28;20190;-66
2023/03/15 01:58:52;;;;;;;22.13;15.87;;;;;;;6.45;65.85;98589.03;5053637;28;20240;-66
2023/03/15 02:01:21;;;;;;;20.80;17.30;;;;;;;6.44;66.30;98590.00;5052438;28;20190;-65
2023/03/15 02:03:55;;;;;;;26.47;17.40;;;;;;;6.48;65.84;98586.81;5052346;28;20197;-65
2023/03/15 02:06:23;;;;;;;28.53;18.50;;;;;;;6.45;66.02;98583.75;5053838;28;20200;-65
2023/03/15 02:08:53;;;;;;;31.33;18.57;;;;;;;6.43;66.23;98583.94;5053610;28;20222;-65
2023/03/15 02:11:24;;;;;;;23.60;17.83;;;;;;;6.33;66.75;98580.00;5052285;28;20192;-64
2023/03/15 02:13:52;;;;;;;30.60;18.13;;;;;;;6.25;66.86;98582.78;5053089;28;20190;-64
2023/03/15 02:16:22;;;;;;;26.37;17.77;;;;;;;6.14;67.59;98586.75;5053342;28;20197;-64
2023/03/15 02:18:49;;;;;;;20.60;16.50;;;;;;;6.06;67.68;98583.44;5053866;28;20254;-64
2023/03/15 02:21:36;;;;;;;23.73;17.60;;;;;;;6.05;67.58;98571.25;5068066;28;20192;-64
2023/03/15 02:24:16;;;;;;;25.43;17.60;;;;;;;5.98;67.70;98570.38;5072745;28;20237;-64
2023/03/15 02:26:47;;;;;;;24.83;16.97;;;;;;;5.94;68.65;98559.41;5072872;28;20191;-64
2023/03/15 02:29:16;;;;;;;24.80;17.30;;;;;;;6.00;68.00;98563.13;5072748;28;20208;-64
2023/03/15 02:31:43;;;;;;;26.63;17.40;;;;;;;6.03;67.53;98566.19;5072557;28;20601;-64
2023/03/15 02:34:10;;;;;;;27.80;18.13;;;;;;;6.04;67.69;98565.16;5072992;28;20192;-64
2023/03/15 02:36:37;;;;;;;20.90;16.87;;;;;;;6.05;68.23;98560.72;5072385;28;20192;-64
2023/03/15 02:39:14;;;;;;;24.03;16.97;;;;;;;6.12;67.52;98561.59;5072670;28;20249;-65
2023/03/15 02:41:43;;;;;;;28.40;17.30;;;;;;;6.02;67.90;98561.91;5072849;28;20279;-64
2023/03/15 02:44:15;;;;;;;25.03;17.00;;;;;;;5.97;67.83;98566.13;5072845;28;20195;-64
2023/03/15 02:46:46;;;;;;;23.83;17.70;;;;;;;5.87;68.16;98549.81;5072924;28;20262;-65
2023/03/15 02:49:15;;;;;;;24.23;17.27;;;;;;;6.05;67.71;98566.00;5072606;28;20215;-65
2023/03/15 02:51:42;;;;;;;26.37;17.53;;;;;;;5.95;68.16;98552.31;5072644;28;20206;-64
2023/03/15 02:54:09;;;;;;;23.53;17.93;;;;;;;5.97;67.89;98552.94;5072112;28;20577;-64
2023/03/15 02:56:36;;;;;;;29.20;18.10;;;;;;;5.95;68.46;98554.97;5072628;28;20188;-64
2023/03/15 02:59:02;;;;;;;27.53;17.90;;;;;;;5.89;68.20;98540.72;5061274;28;20221;-64
2023/03/15 03:01:30;;;;;;;26.07;18.40;;;;;;;5.96;68.15;98546.03;5052595;28;20196;-64
2023/03/15 03:03:58;;;;;;;23.03;17.10;;;;;;;5.97;67.97;98552.94;5052579;28;20198;-64
2023/03/15 03:06:25;;;;;;;28.70;17.97;;;;;;;5.99;68.09;98535.94;5052672;28;20275;-65
2023/03/15 03:08:51;;;;;;;24.20;17.77;;;;;;;5.93;68.05;98541.16;5052348;28;20224;-65
2023/03/15 03:11:18;;;;;;;27.10;18.43;;;;;;;5.88;68.07;98539.06;5052302;28;20247;-65
2023/03/15 03:13:45;;;;;;;28.90;17.60;;;;;;;5.87;68.35;98547.19;5051673;28;20192;-65
2023/03/15 03:16:12;;;;;;;23.63;17.10;;;;;;;5.82;68.58;98550.38;5052078;28;20250;-65
2023/03/15 03:18:39;;;;;;;27.10;17.77;;;;;;;5.68;68.77;98541.50;5051714;28;20668;-65
2023/03/15 03:21:07;;;;;;;25.57;17.10;;;;;;;5.51;69.90;98537.47;5051229;28;20228;-65
2023/03/15 03:23:35;;;;;;;23.77;17.83;;;;;;;5.53;69.50;98530.22;5051846;28;20193;-64
2023/03/15 03:26:03;;;;;;;30.27;17.23;;;;;;;5.58;69.46;98530.47;5051785;28;20254;-64
2023/03/15 03:28:32;;;;;;;31.80;17.97;;;;;;;5.54;69.72;98526.59;5051679;28;20271;-65
2023/03/15 03:30:59;;;;;;;32.47;17.83;;;;;;;5.47;70.07;98533.59;5051856;28;20200;-65
2023/03/15 03:33:26;;;;;;;27.53;17.63;;;;;;;5.43;69.65;98529.69;5052034;28;20206;-65
2023/03/15 03:35:54;;;;;;;23.33;17.60;;;;;;;5.29;70.22;98525.31;5051431;28;20211;-65
2023/03/15 03:38:22;;;;;;;33.23;19.17;;;;;;;5.20;70.04;98523.78;5052017;28;20189;-64
2023/03/15 03:40:48;;;;;;;27.07;17.63;;;;;;;5.14;70.76;98534.22;5051155;28;20201;-65
2023/03/15 03:43:15;;;;;;;20.63;17.13;;;;;;;5.22;70.56;98527.03;5051633;28;20637;-64
2023/03/15 03:45:42;;;;;;;28.77;17.10;;;;;;;5.20;70.70;98507.97;5051412;28;20193;-64
2023/03/15 03:48:09;;;;;;;30.17;19.17;;;;;;;5.33;70.65;98518.69;5051847;28;20254;-65
2023/03/15 03:50:35;;;;;;;21.40;16.67;;;;;;;5.33;71.03;98513.41;5051344;28;20196;-64
2023/03/15 03:53:02;;;;;;;22.63;17.13;;;;;;;5.34;70.67;98509.78;5051778;28;20277;-65
2023/03/15 03:55:32;;;;;;;22.87;16.67;;;;;;;5.35;71.10;98521.91;5051315;28;20712;-64
2023/03/15 03:57:59;;;;;;;23.07;15.63;;;;;;;5.44;71.41;98541.06;5051660;28;20193;-65
2023/03/15 04:00:26;;;;;;;29.17;16.33;;;;;;;5.37;70.58;98535.72;5051602;28;20231;-65
2023/03/15 04:02:53;;;;;;;27.27;17.50;;;;;;;5.29;70.98;98535.84;5051394;28;20781;-65
2023/03/15 04:05:20;;;;;;;26.57;17.97;;;;;;;5.24;70.38;98535.56;5051275;28;20279;-66
2023/03/15 04:07:47;;;;;;;30.67;18.17;;;;;;;5.18;71.27;98538.94;5050922;28;20650;-65
2023/03/15 04:10:14;;;;;;;26.80;17.83;;;;;;;5.15;70.54;98530.63;5050770;28;20277;-65
2023/03/15 04:12:43;;;;;;;22.63;17.03;;;;;;;5.09;71.02;98526.91;5051404;28;20193;-65
2023/03/15 04:15:11;;;;;;;24.57;17.53;;;;;;;5.05;71.01;98520.38;5051171;28;20734;-64
2023/03/15 04:17:38;;;;;;;33.33;18.90;;;;;;;5.04;71.09;98529.28;5061421;28;20199;-65
2023/03/15 04:20:07;;;;;;;24.20;17.07;;;;;;;4.95;70.76;98529.56;5070680;28;20235;-64
2023/03/15 04:22:34;;;;;;;24.53;17.77;;;;;;;4.88;71.22;98508.44;5070990;28;20281;-64
2023/03/15 04:25:01;;;;;;;22.63;17.13;;;;;;;4.92;71.19;98504.44;5070887;28;20275;-64
2023/03/15 04:27:28;;;;;;;24.30;15.63;;;;;;;4.89;71.40;98499.53;5057178;28;20272;-64
2023/03/15 04:29:56;;;;;;;25.53;17.87;;;;;;;4.87;71.16;98500.72;5050973;28;20646;-63
2023/03/15 04:32:23;;;;;;;25.03;17.17;;;;;;;4.86;71.25;98499.91;5062009;28;20625;-63
2023/03/15 04:34:50;;;;;;;28.17;16.87;;;;;;;4.80;71.45;98505.91;5073600;28;20203;-65
2023/03/15 04:37:17;;;;;;;26.37;18.80;;;;;;;4.84;72.09;98507.19;5064457;28;20192;-63
2023/03/15 04:39:45;;;;;;;24.03;16.43;;;;;;;4.96;71.74;98510.13;5054426;28;20258;-63
2023/03/15 04:42:12;;;;;;;24.07;16.27;;;;;;;5.10;71.55;98507.47;5053837;28;20207;-62
2023/03/15 04:44:38;;;;;;;25.73;16.00;;;;;;;5.15;70.46;98512.19;5054793;28;20726;-63
2023/03/15 04:47:07;;;;;;;28.80;14.77;;;;;;;5.20;73.30;98523.78;5054572;28;20254;-63
2023/03/15 04:49:33;;;;;;;17.77;14.37;;;;;;;5.36;73.31;98520.13;5054471;28;20220;-63
2023/03/15 04:52:01;;;;;;;29.13;16.10;;;;;;;5.43;72.30;98519.16;5053987;28;20228;-64
2023/03/15 04:54:28;;;;;;;15.10;10.60;;;;;;;5.53;73.42;98518.88;5053957;28;20201;-63
2023/03/15 04:56:55;;;;;;;22.37;10.10;;;;;;;5.64;74.49;98516.53;5055751;28;20683;-63
2023/03/15 04:59:22;;;;;;;8.80;7.93;;;;;;;5.69;74.84;98516.78;5054002;28;20228;-64
2023/03/15 05:01:49;;;;;;;12.27;9.50;;;;;;;5.83;75.21;98535.41;5052153;28;20259;-64
2023/03/15 05:04:17;;;;;;;13.03;8.70;;;;;;;5.93;75.58;98525.34;5052259;28;20196;-63
2023/03/15 05:06:44;;;;;;;9.93;9.13;;;;;;;5.97;75.09;98516.03;5067774;28;20195;-64
2023/03/15 05:09:17;;;;;;;9.30;8.43;;;;;;;6.11;75.40;98521.22;5073814;28;20264;-63
2023/03/15 05:11:44;;;;;;;9.43;8.17;;;;;;;6.19;75.06;98525.53;5072926;28;20199;-64
2023/03/15 05:14:11;;;;;;;14.87;8.00;;;;;;;6.24;74.68;98523.97;5073448;28;20192;-63
2023/03/15 05:16:37;;;;;;;8.50;7.50;;;;;;;6.35;74.53;98538.44;5060221;28;20254;-63
2023/03/15 05:19:04;;;;;;;12.70;8.30;;;;;;;6.39;74.62;98524.69;5053914;28;20672;-63
2023/03/15 05:21:32;;;;;;;20.27;8.53;;;;;;;6.54;74.25;98543.03;5053493;28;20202;-63
2023/03/15 05:23:59;;;;;;;14.70;8.00;;;;;;;6.61;73.95;98534.13;5053477;28;20196;-64
2023/03/15 05:26:26;;;;;;;15.07;7.83;;;;;;;6.55;73.28;98531.47;5063275;28;20198;-64
2023/03/15 05:28:53;;;;;;;8.03;7.33;;;;;;;6.59;74.37;98537.97;5071317;28;20261;-63
2023/03/15 05:31:20;;;;;;;10.80;8.60;;;;;;;6.66;73.90;98544.91;5073352;28;20809;-63
2023/03/15 05:33:46;;;;;;;11.93;8.00;;;;;;;6.69;72.85;98533.97;5073241;28;20199;-63
2023/03/15 05:36:16;;;;;;;17.87;9.67;;;;;;;6.74;73.14;98525.50;5061286;28;20672;-63
2023/03/15 05:38:44;;;;;;;36.93;18.37;;;;;;;6.76;72.04;98528.75;5052358;28;20261;-63
2023/03/15 05:41:11;;;;;;;36.60;18.33;;;;;;;6.60;70.04;98527.25;5053257;28;20661;-66
2023/03/15 05:43:37;;;;;;;79.93;22.10;;;;;;;6.43;68.25;98528.56;5053661;28;20288;-64
2023/03/15 05:46:04;;;;;;;38.50;21.07;;;;;;;6.20;69.07;98529.81;5052290;28;20214;-68
2023/03/15 05:48:31;;;;;;;44.03;21.30;;;;;;;6.09;68.18;98519.78;5051423;28;20294;-70
2023/03/15 05:50:58;;;;;;;49.00;21.33;;;;;;;5.93;69.47;98525.34;5051144;28;20299;-68
2023/03/15 05:53:24;;;;;;;59.77;27.47;;;;;;;5.93;69.67;98522.69;5051573;28;20246;-66
2023/03/15 05:55:52;;;;;;;44.63;30.40;;;;;;;5.94;68.93;98524.31;5046337;28;20259;-67
2023/03/15 05:58:19;;;;;;;53.87;25.70;;;;;;;6.00;69.05;98515.66;5052686;28;20649;-68
2023/03/15 06:00:48;;;;;;;71.50;23.57;;;;;;;6.01;69.82;98519.94;5033299;28;20256;-68
2023/03/15 06:03:14;;;;;;;47.63;21.77;;;;;;;6.07;68.92;98521.78;5037203;28;20258;-68
2023/03/15 06:05:41;;;;;;;62.50;22.53;;;;;;;6.02;70.32;98511.84;5044230;28;20196;-69
2023/03/15 06:08:08;;;;;;;76.57;27.53;;;;;;;6.16;68.93;98510.13;5031115;28;20293;-68
2023/03/15 06:10:34;;;;;;;44.00;24.10;;;;;;;6.67;67.25;98532.56;5029143;28;20222;-68
2023/03/15 06:13:03;;;;;;;34.27;19.27;;;;;;;7.19;66.05;98535.44;5030817;28;20603;-68
2023/03/15 06:15:29;;;;;;;33.13;20.27;;;;;;;7.75;63.46;98531.50;5039071;28;21051;-70
2023/03/15 06:17:56;;;;;;;43.83;18.73;;;;;;;8.26;63.32;98522.00;5045687;28;20463;-70
2023/03/15 06:20:23;;;;;;;41.03;23.63;;;;;;;8.85;61.34;98533.28;5030601;28;20197;-69
2023/03/15 06:22:50;;;;;;;36.80;22.17;;;;;;;9.18;60.74;98531.31;5029380;28;20204;-72
2023/03/15 06:25:16;;;;;;;27.23;16.07;;;;;;;9.60;60.34;98525.41;5039475;28;20193;-71
2023/03/15 06:27:43;;;;;;;21.10;15.93;;;;;;;9.93;61.22;98534.75;5036661;28;20205;-71
2023/03/15 06:30:12;;;;;;;19.37;13.30;;;;;;;10.21;59.22;98519.25;5032214;28;20217;-70
2023/03/15 06:32:39;;;;;;;38.90;21.77;;;;;;;10.52;59.81;98526.34;5031312;28;20201;-70
2023/03/15 06:35:06;;;;;;;18.07;13.03;;;;;;;10.41;59.64;98524.38;5039382;28;20259;-72
2023/03/15 06:37:34;;;;;;;18.27;10.57;;;;;;;10.35;59.01;98525.28;5030135;28;20212;-72
2023/03/15 06:40:02;;;;;;;12.80;10.50;;;;;;;10.69;61.44;98527.38;5030557;28;20231;-72
2023/03/15 06:42:30;;;;;;;15.00;10.33;;;;;;;11.06;57.84;98528.22;5031098;28;20195;-71
2023/03/15 06:44:56;;;;;;;20.40;10.67;;;;;;;11.57;57.37;98529.41;5039318;28;20201;-70
2023/03/15 06:47:25;;;;;;;13.57;10.60;;;;;;;11.86;55.47;98530.44;5039021;28;20611;-71
2023/03/15 06:49:52;;;;;;;13.43;8.43;;;;;;;11.87;53.36;98529.38;5030682;28;20702;-70
2023/03/15 06:52:19;;;;;;;15.47;8.50;;;;;;;12.02;53.03;98538.59;5030484;28;20256;-70
2023/03/15 06:54:46;;;;;;;11.47;8.77;;;;;;;12.29;50.97;98539.78;5046511;28;20194;-69
2023/03/15 06:57:12;;;;;;;13.87;8.70;;;;;;;12.44;49.95;98545.47;5069900;28;20255;-69
2023/03/15 06:59:39;;;;;;;11.83;8.37;;;;;;;12.79;49.15;98540.97;5054492;28;20232;-70
2023/03/15 07:02:07;;;;;;;11.33;7.47;;;;;;;13.31;48.67;98539.16;5050486;28;20227;-73
2023/03/15 07:04:35;;;;;;;9.20;8.40;;;;;;;13.91;46.31;98533.09;5050178;28;20198;-70
2023/03/15 07:07:01;;;;;;;13.37;8.77;;;;;;;14.10;44.53;98531.81;5050267;28;20192;-70
2023/03/15 07:09:28;;;;;;;10.13;9.10;;;;;;;14.03;43.96;98515.16;5043077;28;20740;-69
2023/03/15 07:11:55;;;;;;;11.83;8.40;;;;;;;13.94;44.10;98527.28;5044287;28;20585;-69
2023/03/15 07:14:21;;;;;;;20.10;9.50;;;;;;;13.71;44.54;98516.72;5034905;28;20209;-68
2023/03/15 07:16:48;;;;;;;12.23;9.50;;;;;;;13.64;44.85;98521.38;5038562;28;20193;-68
2023/03/15 07:19:15;;;;;;;10.93;9.87;;;;;;;13.63;45.07;98524.28;5031989;28;20259;-70
2023/03/15 07:21:43;;;;;;;19.83;11.10;;;;;;;13.83;45.76;98521.97;5047128;28;20605;-68
2023/03/15 07:24:10;;;;;;;29.60;10.53;;;;;;;14.24;45.37;98522.47;5039666;28;20193;-70
2023/03/15 07:26:36;;;;;;;12.57;9.10;;;;;;;14.36;43.61;98523.19;5033751;28;20201;-68
2023/03/15 07:29:03;;;;;;;13.20;8.77;;;;;;;14.20;45.04;98525.81;5045151;28;20733;-68
2023/03/15 07:31:30;;;;;;;13.83;9.03;;;;;;;14.07;44.03;98516.28;5045484;28;20290;-70
2023/03/15 07:33:57;;;;;;;9.20;8.37;;;;;;;13.90;45.74;98512.78;5031173;28;20205;-69
2023/03/15 07:36:24;;;;;;;12.27;7.83;;;;;;;14.12;44.58;98505.69;5031188;28;20259;-67
2023/03/15 07:38:52;;;;;;;12.00;8.73;;;;;;;14.38;44.58;98506.94;5058821;28;20801;-68
2023/03/15 07:41:18;;;;;;;11.17;8.07;;;;;;;14.15;44.49;98501.72;5039371;28;20638;-68
2023/03/15 07:43:45;;;;;;;17.70;8.67;;;;;;;14.10;45.22;98494.41;5031351;28;20202;-67
2023/03/15 07:46:12;;;;;;;12.33;9.20;;;;;;;14.27;43.68;98503.28;5031146;28;20259;-66
2023/03/15 07:48:38;;;;;;;8.57;7.70;;;;;;;13.92;45.18;98512.53;5048209;28;20195;-67
2023/03/15 07:51:05;;;;;;;8.63;7.83;;;;;;;13.92;44.25;98512.53;5043993;28;20327;-69
2023/03/15 07:53:32;;;;;;;16.47;9.20;;;;;;;13.79;45.42;98508.31;5031428;28;20255;-68
2023/03/15 07:56:00;;;;;;;12.57;8.63;;;;;;;13.90;45.01;98503.97;5035276;28;20250;-68
2023/03/15 07:58:27;;;;;;;8.07;7.27;;;;;;;13.81;45.49;98506.22;5048557;28;20573;-69
2023/03/15 08:00:55;;;;;;;9.97;7.87;;;;;;;13.57;45.25;98490.56;5038905;28;20585;-68
2023/03/15 08:03:23;;;;;;;12.90;11.60;;;;;;;13.75;45.31;98504.50;5042395;28;20199;-67
2023/03/15 08:05:49;;;;;;;15.57;10.97;;;;;;;13.89;46.39;98497.00;5047094;28;20203;-66
2023/03/15 08:08:16;;;;;;;18.30;11.53;;;;;;;14.06;44.50;98495.97;5045940;28;20194;-68
2023/03/15 08:10:44;;;;;;;11.33;9.13;;;;;;;13.79;44.84;98488.81;5037576;28;20250;-68
2023/03/15 08:13:13;;;;;;;19.73;9.60;;;;;;;13.39;46.31;98475.56;5034951;28;20205;-68
2023/03/15 08:15:40;;;;;;;14.93;8.70;;;;;;;13.19;46.84;98459.16;5046258;28;20214;-70
2023/03/15 08:18:06;;;;;;;12.20;9.87;;;;;;;13.47;46.76;98455.69;5043283;28;20606;-71
2023/03/15 08:20:33;;;;;;;10.80;8.73;;;;;;;13.47;46.60;98451.16;5034744;28;20201;-69
2023/03/15 08:23:00;;;;;;;12.63;9.83;;;;;;;13.52;46.15;98453.13;5034831;28;20193;-70
2023/03/15 08:25:27;;;;;;;9.87;8.87;;;;;;;13.61;45.38;98452.50;5039189;28;20208;-71
2023/03/15 08:27:54;;;;;;;10.37;9.17;;;;;;;13.62;46.68;98451.44;5046258;28;20197;-71
2023/03/15 08:30:22;;;;;;;9.93;8.93;;;;;;;13.91;45.07;98446.84;5051069;28;20255;-68
2023/03/15 08:32:51;;;;;;;31.60;10.63;;;;;;;14.37;44.34;98425.97;5044655;28;20732;-68
2023/03/15 08:35:20;;;;;;;10.80;8.10;;;;;;;14.54;42.90;98437.41;5052706;28;20686;-67
2023/03/15 08:37:47;;;;;;;13.40;9.27;;;;;;;14.44;41.98;98437.28;5057988;28;20248;-69
2023/03/15 08:40:17;;;;;;;8.27;5.53;;;;;;;15.12;63.78;98412.75;5045417;28;20676;-70
2023/03/15 08:42:44;;;;;;;9.03;8.13;;;;;;;15.83;43.35;98431.94;5049810;28;20587;-70
2023/03/15 08:45:11;;;;;;;10.73;9.40;;;;;;;16.08;40.47;98401.06;5033944;28;20263;-70
2023/03/15 08:47:39;;;;;;;11.77;8.57;;;;;;;16.04;39.28;98426.75;5043872;28;20258;-72
2023/03/15 08:50:08;;;;;;;15.37;11.03;;;;;;;15.54;40.83;98425.25;5035132;28;20282;-70
2023/03/15 08:52:35;;;;;;;33.07;16.17;;;;;;;15.12;41.64;98434.94;5034409;28;20657;-73
2023/03/15 08:55:02;;;;;;;12.30;9.17;;;;;;;14.79;42.75;98435.06;5034828;28;20678;-77
2023/03/15 08:57:31;;;;;;;13.37;12.03;;;;;;;14.64;42.70;98428.72;5042544;28;20262;-73
2023/03/15 08:59:58;;;;;;;14.07;9.63;;;;;;;14.44;43.82;98437.28;5059688;28;20259;-74
2023/03/15 09:02:25;;;;;;;10.73;9.70;;;;;;;14.36;42.96;98429.69;5033561;28;20626;-71
2023/03/15 09:04:53;;;;;;;12.97;9.70;;;;;;;14.15;43.98;98421.59;5034014;28;20197;-74
2023/03/15 09:07:20;;;;;;;10.00;8.97;;;;;;;14.31;43.61;98421.63;5036598;28;20201;-69
2023/03/15 09:09:47;;;;;;;15.47;10.27;;;;;;;14.53;45.06;98413.59;5050625;28;20631;-69
2023/03/15 09:12:15;;;;;;;12.60;9.50;;;;;;;15.06;42.88;98411.88;5035428;28;20642;-70
2023/03/15 09:14:42;;;;;;;11.47;9.47;;;;;;;15.26;41.96;98403.25;5046909;28;20229;-73
2023/03/15 09:17:09;;;;;;;46.40;10.53;;;;;;;15.03;42.08;98399.00;5052975;28;20259;-69
2023/03/15 09:19:35;;;;;;;17.17;9.70;;;;;;;15.28;40.72;98399.25;5044972;28;20197;-69
2023/03/15 09:22:04;;;;;;;14.37;10.03;;;;;;;15.23;41.34;98401.88;5033837;28;20259;-71
2023/03/15 09:24:30;;;;;;;11.33;9.07;;;;;;;15.06;40.18;98392.34;5036101;28;20201;-69
2023/03/15 09:26:57;;;;;;;9.77;8.80;;;;;;;14.90;40.29;98388.69;5046483;28;20841;-69
2023/03/15 09:29:24;;;;;;;13.07;9.90;;;;;;;14.82;40.64;98397.16;5043440;28;20217;-69
2023/03/15 09:31:51;;;;;;;13.03;9.23;;;;;;;14.88;40.79;98390.81;5033255;28;20217;-70
2023/03/15 09:34:18;;;;;;;10.17;8.93;;;;;;;15.16;39.83;98387.91;5033871;28;20197;-70
2023/03/15 09:36:44;;;;;;;9.93;8.90;;;;;;;15.45;40.08;98391.97;5033280;28;20239;-71
2023/03/15 09:39:12;;;;;;;13.70;10.07;;;;;;;15.19;39.22;98403.44;5042035;28;20255;-73
2023/03/15 09:41:45;;;;;;;18.47;9.07;;;;;;;14.99;40.11;98402.44;5041068;28;20270;-75
2023/03/15 09:44:35;;;;;;;10.40;9.13;;;;;;;14.91;41.09;98384.97;5039525;28;20197;-82
2023/03/15 09:47:20;;;;;;;10.23;9.23;;;;;;;14.85;39.98;98343.19;5042717;28;20550;-75
2023/03/15 09:49:51;;;;;;;10.70;9.57;;;;;;;15.38;39.58;98377.19;5032361;28;20328;-73
2023/03/15 09:52:39;;;;;;;21.60;10.03;;;;;;;15.59;39.44;98377.13;5040647;28;20210;-78
2023/03/15 09:55:14;;;;;;;14.63;9.53;;;;;;;15.62;37.58;98330.28;5033120;28;20675;-72
2023/03/15 09:57:47;;;;;;;9.60;8.80;;;;;;;16.19;37.16;98373.25;5056679;28;20200;-76
2023/03/15 10:00:19;;;;;;;20.47;10.37;;;;;;;16.17;37.15;98364.69;5044924;28;20275;-76
2023/03/15 10:02:55;;;;;;;17.77;12.13;;;;;;;16.52;36.95;98370.25;5047033;28;20630;-71
2023/03/15 10:05:28;;;;;;;14.20;9.87;;;;;;;16.63;36.50;98366.56;5040115;28;20224;-72
2023/03/15 10:07:54;;;;;;;10.77;8.97;;;;;;;16.78;35.34;98358.56;5052010;28;20189;-71
2023/03/15 10:10:28;;;;;;;11.27;9.93;;;;;;;16.88;35.26;98347.88;5037328;28;20263;-70
2023/03/15 10:13:02;;;;;;;14.67;12.10;;;;;;;16.45;36.89;98348.25;5046989;28;20193;-72
2023/03/15 10:15:40;;;;;;;11.90;9.43;;;;;;;16.37;36.46;98343.34;5037281;28;20250;-70
2023/03/15 10:18:27;;;;;;;42.13;12.70;;;;;;;15.93;37.71;98346.31;5052181;28;20220;-70
2023/03/15 10:21:02;;;;;;;36.33;12.33;;;;;;;15.67;38.12;98347.19;5057084;28;20197;-69
2023/03/15 10:23:40;;;;;;;26.17;10.77;;;;;;;15.66;37.97;98353.63;5032935;28;20188;-71
2023/03/15 10:26:14;;;;;;;18.83;10.50;;;;;;;15.66;37.27;98352.81;5040560;28;20196;-70
2023/03/15 10:28:40;;;;;;;13.27;10.10;;;;;;;15.61;38.20;98348.22;5037939;28;20194;-75
2023/03/15 10:31:14;;;;;;;10.60;9.20;;;;;;;15.43;38.32;98353.13;5054729;28;20225;-71
2023/03/15 10:33:42;;;;;;;29.50;9.67;;;;;;;15.40;37.95;98351.00;5030920;28;20197;-72
2023/03/15 10:36:16;;;;;;;11.03;9.83;;;;;;;15.39;38.50;98336.78;5032380;28;20202;-71
2023/03/15 10:38:43;;;;;;;77.93;13.80;;;;;;;14.91;39.87;98336.81;5039623;28;20192;-73
2023/03/15 10:41:14;;;;;;;18.40;10.57;;;;;;;14.71;40.21;98336.59;5032079;28;20205;-71
2023/03/15 10:43:41;;;;;;;21.97;10.97;;;;;;;14.74;40.62;98336.13;5030878;28;20197;-71
2023/03/15 10:46:10;;;;;;;10.17;9.13;;;;;;;14.90;40.25;98318.34;5030660;28;20209;-70
2023/03/15 10:48:38;;;;;;;23.30;9.90;;;;;;;14.96;39.61;98318.16;5039863;28;20193;-70
2023/03/15 10:51:06;;;;;;;14.13;9.30;;;;;;;14.83;40.30;98313.22;5032314;28;20263;-69
2023/03/15 10:53:34;;;;;;;21.53;10.80;;;;;;;14.38;41.04;98311.91;5032524;28;20193;-69
2023/03/15 10:56:02;;;;;;;11.70;10.43;;;;;;;14.55;41.09;98324.13;5031530;28;20197;-70
2023/03/15 10:58:40;;;;;;;12.13;9.73;;;;;;;14.40;41.67;98315.94;5038049;28;20205;-70
2023/03/15 11:01:08;;;;;;;13.47;10.00;;;;;;;14.25;42.47;98305.06;5032843;28;20197;-70
2023/03/15 11:03:36;;;;;;;59.13;13.90;;;;;;;14.46;41.80;98298.91;5032358;28;20197;-70
2023/03/15 11:06:03;;;;;;;16.97;10.50;;;;;;;14.44;42.23;98303.72;5031848;28;20275;-70
2023/03/15 11:08:38;;;;;;;16.37;10.27;;;;;;;14.44;42.23;98303.72;5037745;28;20193;-70
2023/03/15 11:11:05;;;;;;;15.43;9.70;;;;;;;14.59;41.54;98305.75;5032770;28;20712;-70
2023/03/15 11:13:35;;;;;;;58.00;31.13;;;;;;;14.45;41.48;98316.00;5032453;28;20232;-71
2023/03/15 11:16:05;;;;;;;15.40;9.67;;;;;;;14.23;41.80;98307.19;5035346;28;20196;-70
2023/03/15 11:18:36;;;;;;;39.00;11.57;;;;;;;14.26;42.29;98304.00;5043598;28;20629;-70
2023/03/15 11:21:08;;;;;;;16.50;10.13;;;;;;;14.52;41.14;98305.13;5033474;28;20665;-70
2023/03/15 11:23:38;;;;;;;11.30;10.10;;;;;;;14.74;40.82;98301.38;5032306;28;20194;-69
2023/03/15 11:26:05;;;;;;;15.23;10.93;;;;;;;14.93;40.71;98307.16;5031857;28;20282;-72
2023/03/15 11:28:36;;;;;;;15.63;10.30;;;;;;;15.11;40.69;98296.91;5035945;28;20197;-73
2023/03/15 11:31:05;;;;;;;17.87;9.27;;;;;;;15.27;39.64;98293.31;5034136;28;20299;-75